createdAt,value
2016-04-30T00:00:31.647Z,20.01
2016-04-30T00:01:31.510Z,20.11
2016-04-30T00:02:31.668Z,20.01
2016-04-30T00:03:32.060Z,20.01
2016-04-30T00:04:31.674Z,19.73
2016-04-30T00:05:31.676Z,19.92
2016-04-30T00:06:31.694Z,20.01
2016-04-30T00:07:31.697Z,19.82
2016-04-30T00:08:31.699Z,19.73
2016-04-30T00:09:31.702Z,20.01
2016-04-30T00:10:31.721Z,20.11
2016-04-30T00:11:31.723Z,20.01
2016-04-30T00:12:31.570Z,20.01
2016-04-30T00:13:31.729Z,19.73
2016-04-30T00:14:31.732Z,19.92
2016-04-30T00:15:31.593Z,20.21
2016-04-30T00:16:31.753Z,19.82
2016-04-30T00:17:31.598Z,20.01
2016-04-30T00:18:31.930Z,19.63
2016-04-30T00:19:31.761Z,20.01
2016-04-30T00:20:31.779Z,20.01
2016-04-30T00:21:31.781Z,19.92
2016-04-30T00:22:31.628Z,19.63
2016-04-30T00:23:31.803Z,20.01
2016-04-30T00:24:31.789Z,20.01
2016-04-30T00:25:31.809Z,19.73
2016-04-30T00:26:31.811Z,19.92
2016-04-30T00:27:31.658Z,20.01
2016-04-30T00:28:31.816Z,20.01
2016-04-30T00:29:31.819Z,19.43
2016-04-30T00:30:31.837Z,19.73
2016-04-30T00:31:31.856Z,19.92
2016-04-30T00:32:31.843Z,19.92
2016-04-30T00:33:31.861Z,20.01
2016-04-30T00:34:31.848Z,19.92
2016-04-30T00:35:31.710Z,19.82
2016-04-30T00:36:31.869Z,20.01
2016-04-30T00:37:31.716Z,20.11
2016-04-30T00:38:31.874Z,19.81
2016-04-30T00:39:31.876Z,19.53
2016-04-30T00:40:31.895Z,19.82
2016-04-30T00:41:31.898Z,19.82
2016-04-30T00:42:31.916Z,20.01
2016-04-30T00:43:31.904Z,19.91
2016-04-30T00:44:31.921Z,19.92
2016-04-30T00:45:31.909Z,20.01
2016-04-30T00:46:31.927Z,19.43
2016-04-30T00:47:31.929Z,19.73
2016-04-30T00:48:31.948Z,19.63
2016-04-30T00:49:31.935Z,19.92
2016-04-30T00:50:31.797Z,20.01
2016-04-30T00:51:31.956Z,20.01
2016-04-30T00:52:31.959Z,19.81
2016-04-30T00:53:31.821Z,19.73
2016-04-30T00:54:31.823Z,19.92
2016-04-30T00:55:31.983Z,20.01
2016-04-30T00:56:31.985Z,19.43
2016-04-30T00:57:31.988Z,20.11
2016-04-30T00:58:31.991Z,19.43
2016-04-30T00:59:32.009Z,19.43
2016-04-30T01:00:32.011Z,19.73
2016-04-30T01:01:32.014Z,19.43
2016-04-30T01:02:32.016Z,19.73
2016-04-30T01:03:32.020Z,19.73
2016-04-30T01:04:32.038Z,19.73
2016-04-30T01:05:31.868Z,19.43
2016-04-30T01:06:31.888Z,19.52
2016-04-30T01:07:32.046Z,19.73
2016-04-30T01:08:32.065Z,20.2
2016-04-30T01:09:32.067Z,20.01
2016-04-30T01:10:32.070Z,19.91
2016-04-30T01:11:32.088Z,20.2
2016-04-30T01:12:32.091Z,19.43
2016-04-30T01:13:32.093Z,19.91
2016-04-30T01:14:31.940Z,19.71
2016-04-30T01:15:32.099Z,19.81
2016-04-30T01:16:32.101Z,19.81
2016-04-30T01:17:32.104Z,20.1
2016-04-30T01:18:32.013Z,19.73
2016-04-30T01:19:32.125Z,20.31
2016-04-30T01:20:32.128Z,20.1
2016-04-30T01:21:32.131Z,19.43
2016-04-30T01:22:32.148Z,19.52
2016-04-30T01:23:32.151Z,19.43
2016-04-30T01:24:32.154Z,19.73
2016-04-30T01:25:32.156Z,19.81
2016-04-30T01:26:32.175Z,19.82
2016-04-30T01:27:32.162Z,19.82
2016-04-30T01:28:32.164Z,19.71
2016-04-30T01:29:32.183Z,19.62
2016-04-30T01:30:32.185Z,19.92
2016-04-30T01:31:32.188Z,19.52
2016-04-30T01:32:32.192Z,19.73
2016-04-30T01:33:32.210Z,19.82
2016-04-30T01:34:32.213Z,19.82
2016-04-30T01:35:32.215Z,19.53
2016-04-30T01:36:32.218Z,19.91
2016-04-30T01:37:32.221Z,19.43
2016-04-30T01:38:32.238Z,19.52
2016-04-30T01:39:32.241Z,19.92
2016-04-30T01:40:32.244Z,19.62
2016-04-30T01:41:32.246Z,20.01
2016-04-30T01:42:32.249Z,19.53
2016-04-30T01:43:32.252Z,19.73
2016-04-30T01:44:32.115Z,19.53
2016-04-30T01:45:32.274Z,19.53
2016-04-30T01:46:32.276Z,19.53
2016-04-30T01:47:32.278Z,19.82
2016-04-30T01:48:32.297Z,20.01
2016-04-30T01:49:32.300Z,19.73
2016-04-30T01:50:32.145Z,19.53
2016-04-30T01:51:32.306Z,19.73
2016-04-30T01:52:32.308Z,20.01
2016-04-30T01:53:32.311Z,19.53
2016-04-30T01:54:32.328Z,19.92
2016-04-30T01:55:32.331Z,19.71
2016-04-30T01:56:32.334Z,19.92
2016-04-30T01:57:32.336Z,19.73
2016-04-30T01:58:32.339Z,19.62
2016-04-30T01:59:32.358Z,19.92
2016-04-30T02:00:32.361Z,19.92
2016-04-30T02:01:32.207Z,19.71
2016-04-30T02:02:32.366Z,19.63
2016-04-30T02:03:32.369Z,20.1
2016-04-30T02:04:32.231Z,20.01
2016-04-30T02:05:32.389Z,19.82
2016-04-30T02:06:32.392Z,19.81
2016-04-30T02:07:32.238Z,20.01
2016-04-30T02:08:32.397Z,19.53
2016-04-30T02:09:32.260Z,19.63
2016-04-30T02:10:32.418Z,19.92
2016-04-30T02:11:32.421Z,19.62
2016-04-30T02:12:32.424Z,20.01
2016-04-30T02:13:32.443Z,19.71
2016-04-30T02:14:32.445Z,19.63
2016-04-30T02:15:32.447Z,20.01
2016-04-30T02:16:32.450Z,20.1
2016-04-30T02:17:32.454Z,19.92
2016-04-30T02:18:32.518Z,19.91
2016-04-30T02:19:32.459Z,19.92
2016-04-30T02:20:32.476Z,19.62
2016-04-30T02:21:32.323Z,19.81
2016-04-30T02:22:32.498Z,19.71
2016-04-30T02:23:32.501Z,19.82
2016-04-30T02:24:32.503Z,19.73
2016-04-30T02:25:32.506Z,19.73
2016-04-30T02:26:32.508Z,19.63
2016-04-30T02:27:32.511Z,19.63
2016-04-30T02:28:32.530Z,19.62
2016-04-30T02:29:32.532Z,19.63
2016-04-30T02:30:32.551Z,19.62
2016-04-30T02:31:32.538Z,19.24
2016-04-30T02:32:32.541Z,19.53
2016-04-30T02:33:32.558Z,19.23
2016-04-30T02:34:32.561Z,19.63
2016-04-30T02:35:32.563Z,19.53
2016-04-30T02:36:32.566Z,19.05
2016-04-30T02:37:32.569Z,19.43
2016-04-30T02:38:32.432Z,19.71
2016-04-30T02:39:32.434Z,19.23
2016-04-30T02:40:32.437Z,19.05
2016-04-30T02:41:32.596Z,19.05
2016-04-30T02:42:32.598Z,19.63
2016-04-30T02:43:32.616Z,19.04
2016-04-30T02:44:32.619Z,19.05
2016-04-30T02:45:32.622Z,19.05
2016-04-30T02:46:32.624Z,19.05
2016-04-30T02:47:32.627Z,19.04
2016-04-30T02:48:32.645Z,19.05
2016-04-30T02:49:32.649Z,19.71
2016-04-30T02:50:32.651Z,19.05
2016-04-30T02:51:32.670Z,18.95
2016-04-30T02:52:32.656Z,19.24
2016-04-30T02:53:32.675Z,19.53
2016-04-30T02:54:32.677Z,19.24
2016-04-30T02:55:32.680Z,18.94
2016-04-30T02:56:32.684Z,19.05
2016-04-30T02:57:32.686Z,18.94
2016-04-30T02:58:32.689Z,19.05
2016-04-30T02:59:32.706Z,18.95
2016-04-30T03:00:32.708Z,19.05
2016-04-30T03:01:32.711Z,19.43
2016-04-30T03:02:32.714Z,19.05
2016-04-30T03:03:32.717Z,18.95
2016-04-30T03:04:33.142Z,18.95
2016-04-30T03:05:32.738Z,19.04
2016-04-30T03:06:32.741Z,19.04
2016-04-30T03:07:32.744Z,19.05
2016-04-30T03:08:32.747Z,18.95
2016-04-30T03:09:32.765Z,19.05
2016-04-30T03:10:32.768Z,19.13
2016-04-30T03:11:32.770Z,19.05
2016-04-30T03:12:32.616Z,19.15
2016-04-30T03:13:32.776Z,19.24
2016-04-30T03:14:32.637Z,19.04
2016-04-30T03:15:32.797Z,19.05
2016-04-30T03:16:32.799Z,19.24
2016-04-30T03:17:32.802Z,19.05
2016-04-30T03:18:32.820Z,19.04
2016-04-30T03:19:32.823Z,18.95
2016-04-30T03:20:32.825Z,19.24
2016-04-30T03:21:32.828Z,19.05
2016-04-30T03:22:32.878Z,19.15
2016-04-30T03:23:32.849Z,19.15
2016-04-30T03:24:32.867Z,19.34
2016-04-30T03:25:32.715Z,19.43
2016-04-30T03:26:32.857Z,19.15
2016-04-30T03:27:32.906Z,19.43
2016-04-30T03:28:32.862Z,19.05
2016-04-30T03:29:32.881Z,19.05
2016-04-30T03:30:32.884Z,19.04
2016-04-30T03:31:32.886Z,18.95
2016-04-30T03:32:32.938Z,18.94
2016-04-30T03:33:32.993Z,19.13
2016-04-30T03:34:34.409Z,19.15
2016-04-30T03:35:33.121Z,19.13
2016-04-30T03:36:33.177Z,19.33
2016-04-30T03:37:33.201Z,19.15
2016-04-30T03:38:33.222Z,19.04
2016-04-30T03:39:33.259Z,19.05
2016-04-30T03:40:33.296Z,19.05
2016-04-30T03:41:33.302Z,19.04
2016-04-30T03:42:33.328Z,19.05
2016-04-30T03:43:33.322Z,19.04
2016-04-30T03:44:33.347Z,18.95
2016-04-30T03:45:33.201Z,19.15
2016-04-30T03:46:33.211Z,19.13
2016-04-30T03:47:33.372Z,19.05
2016-04-30T03:48:33.393Z,18.94
2016-04-30T03:49:33.617Z,19.04
2016-04-30T03:50:33.404Z,19.13
2016-04-30T03:51:33.253Z,19.05
2016-04-30T03:52:33.429Z,19.15
2016-04-30T03:53:33.432Z,19.04
2016-04-30T03:54:33.421Z,19.13
2016-04-30T03:55:33.424Z,19.05
2016-04-30T03:56:33.442Z,19.34
2016-04-30T03:57:33.461Z,19.34
2016-04-30T03:58:33.449Z,19.34
2016-04-30T03:59:33.295Z,19.34
2016-04-30T04:00:33.471Z,19.23
2016-04-30T04:01:33.474Z,19.24
2016-04-30T04:02:33.477Z,19.24
2016-04-30T04:03:33.480Z,19.43
2016-04-30T04:04:33.951Z,18.66
2016-04-30T04:05:33.499Z,18.95
2016-04-30T04:06:33.502Z,19.04
2016-04-30T04:07:33.504Z,18.95
2016-04-30T04:08:33.524Z,18.95
2016-04-30T04:09:33.511Z,19.05
2016-04-30T04:10:33.529Z,19.24
2016-04-30T04:11:33.532Z,19.43
2016-04-30T04:12:33.534Z,19.34
2016-04-30T04:13:33.537Z,19.43
2016-04-30T04:14:33.540Z,19.15
2016-04-30T04:15:33.559Z,19.34
2016-04-30T04:16:33.561Z,19.34
2016-04-30T04:17:33.564Z,19.05
2016-04-30T04:18:33.566Z,19.05
2016-04-30T04:19:34.647Z,18.95
2016-04-30T04:20:33.587Z,18.95
2016-04-30T04:21:33.590Z,19.24
2016-04-30T04:22:33.608Z,19.05
2016-04-30T04:23:33.595Z,19.05
2016-04-30T04:24:33.613Z,19.05
2016-04-30T04:25:33.616Z,18.66
2016-04-30T04:26:33.619Z,19.05
2016-04-30T04:27:33.466Z,18.66
2016-04-30T04:28:33.625Z,18.95
2016-04-30T04:29:33.627Z,18.57
2016-04-30T04:30:33.630Z,18.66
2016-04-30T04:31:33.648Z,18.76
2016-04-30T04:32:33.651Z,18.66
2016-04-30T04:33:33.653Z,18.66
2016-04-30T04:34:33.516Z,18.66
2016-04-30T04:35:33.674Z,19.15
2016-04-30T04:36:33.677Z,18.95
2016-04-30T04:37:33.696Z,18.76
2016-04-30T04:38:33.698Z,18.85
2016-04-30T04:39:33.685Z,18.76
2016-04-30T04:40:33.688Z,18.76
2016-04-30T04:41:33.706Z,18.76
2016-04-30T04:42:33.724Z,18.76
2016-04-30T04:43:33.727Z,18.66
2016-04-30T04:44:33.729Z,18.76
2016-04-30T04:45:33.717Z,18.76
2016-04-30T04:46:33.735Z,18.76
2016-04-30T04:47:33.582Z,18.85
2016-04-30T04:48:33.740Z,18.66
2016-04-30T04:49:33.775Z,18.85
2016-04-30T04:50:33.745Z,18.85
2016-04-30T04:51:33.764Z,18.85
2016-04-30T04:52:33.766Z,18.95
2016-04-30T04:53:33.770Z,18.85
2016-04-30T04:54:33.772Z,18.66
2016-04-30T04:55:33.806Z,18.57
2016-04-30T04:56:33.636Z,18.85
2016-04-30T04:57:33.796Z,18.85
2016-04-30T04:58:33.814Z,18.95
2016-04-30T04:59:33.817Z,18.85
2016-04-30T05:00:33.820Z,18.85
2016-04-30T05:01:47.916Z,18.85
2016-04-30T05:02:33.825Z,18.66
2016-04-30T05:03:33.827Z,18.76
2016-04-30T05:04:33.846Z,18.76
2016-04-30T05:05:33.849Z,18.95
2016-04-30T05:06:33.852Z,18.85
2016-04-30T05:07:33.854Z,18.66
2016-04-30T05:08:33.857Z,18.66
2016-04-30T05:09:33.859Z,18.85
2016-04-30T05:10:33.893Z,18.76
2016-04-30T05:11:33.881Z,18.85
2016-04-30T05:12:33.884Z,18.85
2016-04-30T05:13:33.886Z,18.66
2016-04-30T05:14:33.889Z,18.85
2016-04-30T05:15:33.907Z,18.76
2016-04-30T05:16:33.909Z,18.57
2016-04-30T05:17:33.912Z,18.76
2016-04-30T05:18:33.759Z,18.76
2016-04-30T05:19:34.871Z,18.76
2016-04-30T05:20:33.936Z,18.76
2016-04-30T05:21:33.939Z,18.57
2016-04-30T05:22:33.785Z,18.76
2016-04-30T05:23:33.944Z,18.85
2016-04-30T05:24:33.947Z,18.57
2016-04-30T05:25:33.950Z,18.95
2016-04-30T05:26:33.967Z,18.76
2016-04-30T05:27:33.970Z,18.57
2016-04-30T05:28:33.973Z,18.76
2016-04-30T05:29:33.975Z,18.85
2016-04-30T05:30:33.994Z,18.95
2016-04-30T05:31:33.997Z,18.95
2016-04-30T05:32:33.999Z,18.85
2016-04-30T05:33:34.018Z,18.85
2016-04-30T05:34:33.896Z,18.85
2016-04-30T05:35:33.866Z,18.76
2016-04-30T05:36:34.027Z,18.85
2016-04-30T05:37:34.029Z,18.37
2016-04-30T05:38:34.032Z,18.95
2016-04-30T05:39:34.049Z,18.85
2016-04-30T05:40:34.052Z,18.57
2016-04-30T05:41:34.054Z,18.85
2016-04-30T05:42:34.057Z,18.85
2016-04-30T05:43:34.060Z,18.66
2016-04-30T05:44:34.079Z,18.95
2016-04-30T05:45:34.082Z,18.76
2016-04-30T05:46:34.084Z,18.76
2016-04-30T05:47:34.087Z,18.57
2016-04-30T05:48:34.090Z,18.85
2016-04-30T05:49:34.108Z,18.85
2016-04-30T05:50:34.111Z,18.47
2016-04-30T05:51:34.113Z,18.95
2016-04-30T05:52:33.959Z,18.95
2016-04-30T05:53:34.150Z,18.57
2016-04-30T05:54:33.964Z,18.85
2016-04-30T05:55:34.139Z,18.76
2016-04-30T05:56:34.142Z,18.95
2016-04-30T05:57:33.989Z,18.76
2016-04-30T05:58:34.164Z,18.95
2016-04-30T05:59:34.167Z,18.66
2016-04-30T06:00:34.012Z,18.66
2016-04-30T06:01:34.171Z,18.85
2016-04-30T06:02:34.034Z,18.57
2016-04-30T06:03:34.192Z,18.76
2016-04-30T06:04:34.039Z,18.85
2016-04-30T06:05:34.197Z,18.57
2016-04-30T06:06:34.200Z,18.57
2016-04-30T06:07:34.203Z,18.76
2016-04-30T06:08:34.065Z,18.57
2016-04-30T06:09:34.224Z,18.76
2016-04-30T06:10:34.071Z,18.95
2016-04-30T06:11:34.230Z,18.47
2016-04-30T06:12:34.232Z,18.66
2016-04-30T06:13:34.251Z,18.57
2016-04-30T06:14:34.096Z,18.85
2016-04-30T06:15:34.256Z,18.85
2016-04-30T06:16:34.118Z,18.85
2016-04-30T06:17:34.276Z,19.05
2016-04-30T06:18:34.264Z,18.85
2016-04-30T06:19:34.298Z,18.76
2016-04-30T06:20:34.285Z,18.76
2016-04-30T06:21:34.287Z,18.57
2016-04-30T06:22:34.697Z,18.66
2016-04-30T06:23:34.303Z,18.95
2016-04-30T06:24:34.305Z,18.76
2016-04-30T06:25:34.167Z,19.24
2016-04-30T06:26:34.327Z,18.76
2016-04-30T06:27:34.330Z,18.76
2016-04-30T06:28:34.332Z,18.57
2016-04-30T06:29:34.335Z,18.76
2016-04-30T06:30:34.353Z,18.57
2016-04-30T06:31:34.200Z,18.85
2016-04-30T06:32:34.358Z,18.57
2016-04-30T06:33:34.361Z,18.76
2016-04-30T06:34:34.379Z,18.76
2016-04-30T06:35:34.366Z,18.85
2016-04-30T06:36:34.385Z,18.66
2016-04-30T06:37:34.231Z,18.76
2016-04-30T06:38:34.390Z,18.85
2016-04-30T06:39:34.393Z,18.95
2016-04-30T06:40:34.240Z,18.66
2016-04-30T06:41:34.257Z,18.76
2016-04-30T06:42:34.417Z,18.85
2016-04-30T06:43:34.419Z,18.57
2016-04-30T06:44:34.422Z,18.57
2016-04-30T06:45:34.440Z,18.57
2016-04-30T06:46:34.442Z,18.57
2016-04-30T06:47:34.445Z,18.85
2016-04-30T06:48:34.448Z,18.85
2016-04-30T06:49:34.451Z,18.66
2016-04-30T06:50:34.454Z,18.76
2016-04-30T06:51:34.472Z,18.95
2016-04-30T06:52:34.474Z,18.47
2016-04-30T06:53:34.478Z,18.76
2016-04-30T06:54:34.325Z,18.95
2016-04-30T06:55:34.342Z,18.85
2016-04-30T06:56:34.500Z,18.76
2016-04-30T06:57:34.503Z,18.76
2016-04-30T06:58:34.506Z,18.95
2016-04-30T06:59:34.353Z,18.85
2016-04-30T07:00:34.512Z,18.85
2016-04-30T07:01:34.530Z,18.85
2016-04-30T07:02:34.533Z,18.85
2016-04-30T07:03:34.536Z,18.85
2016-04-30T07:04:34.413Z,18.85
2016-04-30T07:05:34.556Z,18.75
2016-04-30T07:06:34.560Z,18.94
2016-04-30T07:07:34.562Z,18.85
2016-04-30T07:08:34.565Z,18.85
2016-04-30T07:09:34.568Z,18.76
2016-04-30T07:10:34.429Z,18.85
2016-04-30T07:11:34.588Z,18.76
2016-04-30T07:12:34.435Z,18.76
2016-04-30T07:13:34.593Z,18.66
2016-04-30T07:14:34.596Z,18.85
2016-04-30T07:15:34.615Z,18.85
2016-04-30T07:16:34.618Z,18.85
2016-04-30T07:17:34.620Z,18.85
2016-04-30T07:18:34.623Z,18.85
2016-04-30T07:19:35.031Z,18.85
2016-04-30T07:20:34.628Z,18.85
2016-04-30T07:21:34.647Z,18.85
2016-04-30T07:22:34.650Z,18.75
2016-04-30T07:23:34.652Z,18.76
2016-04-30T07:24:34.655Z,18.85
2016-04-30T07:25:34.517Z,18.85
2016-04-30T07:26:34.675Z,18.66
2016-04-30T07:27:34.522Z,18.57
2016-04-30T07:28:34.681Z,18.76
2016-04-30T07:29:34.684Z,18.85
2016-04-30T07:30:34.702Z,19.05
2016-04-30T07:31:34.546Z,18.85
2016-04-30T07:32:34.549Z,18.85
2016-04-30T07:33:34.710Z,18.85
2016-04-30T07:34:35.135Z,18.55
2016-04-30T07:35:34.713Z,18.57
2016-04-30T07:36:34.731Z,18.37
2016-04-30T07:37:34.733Z,18.38
2016-04-30T07:38:34.736Z,17.9
2016-04-30T07:39:34.739Z,17.8
2016-04-30T07:40:34.757Z,17.22
2016-04-30T07:41:34.604Z,16.64
2016-04-30T07:42:34.763Z,16.56
2016-04-30T07:43:34.765Z,16.36
2016-04-30T07:44:34.768Z,15.89
2016-04-30T07:45:34.771Z,16.18
2016-04-30T07:46:34.789Z,16.08
2016-04-30T07:47:34.792Z,15.99
2016-04-30T07:48:34.795Z,15.7
2016-04-30T07:49:34.907Z,15.51
2016-04-30T07:50:34.815Z,15.02
2016-04-30T07:51:34.803Z,15.32
2016-04-30T07:52:34.820Z,14.94
2016-04-30T07:53:34.823Z,14.94
2016-04-30T07:54:34.842Z,14.45
2016-04-30T07:55:34.845Z,14.84
2016-04-30T07:56:34.847Z,14.94
2016-04-30T07:57:34.850Z,14.55
2016-04-30T07:58:34.853Z,15.14
2016-04-30T07:59:34.699Z,14.75
2016-04-30T08:00:34.717Z,14.84
2016-04-30T08:01:48.972Z,14.36
2016-04-30T08:02:34.894Z,14.45
2016-04-30T08:03:34.897Z,14.45
2016-04-30T08:04:34.900Z,14.37
2016-04-30T08:05:34.918Z,14.36
2016-04-30T08:06:34.905Z,14.17
2016-04-30T08:07:34.907Z,14.17
2016-04-30T08:08:34.927Z,14.26
2016-04-30T08:09:34.930Z,14.47
2016-04-30T08:10:34.932Z,14.17
2016-04-30T08:11:34.934Z,14.37
2016-04-30T08:12:34.952Z,14.37
2016-04-30T08:13:34.955Z,14.56
2016-04-30T08:14:34.957Z,14.36
2016-04-30T08:15:34.976Z,14.37
2016-04-30T08:16:34.979Z,14.27
2016-04-30T08:17:34.982Z,14.27
2016-04-30T08:18:35.000Z,14.07
2016-04-30T08:19:34.846Z,14.07
2016-04-30T08:20:35.006Z,14.37
2016-04-30T08:21:35.008Z,14.37
2016-04-30T08:22:35.011Z,14.65
2016-04-30T08:23:35.029Z,14.36
2016-04-30T08:24:35.032Z,14.65
2016-04-30T08:25:35.035Z,14.45
2016-04-30T08:26:34.944Z,14.07
2016-04-30T08:27:35.055Z,14.07
2016-04-30T08:28:35.075Z,14.65
2016-04-30T08:29:35.061Z,14.45
2016-04-30T08:30:35.063Z,14.45
2016-04-30T08:31:35.973Z,14.45
2016-04-30T08:32:35.085Z,14.55
2016-04-30T08:33:34.931Z,14.55
2016-04-30T08:34:35.386Z,14.84
2016-04-30T08:35:35.108Z,15.04
2016-04-30T08:36:35.110Z,14.75
2016-04-30T08:37:35.114Z,14.75
2016-04-30T08:38:35.116Z,14.45
2016-04-30T08:39:35.134Z,14.94
2016-04-30T08:40:34.981Z,14.94
2016-04-30T08:41:35.140Z,14.75
2016-04-30T08:42:35.158Z,14.84
2016-04-30T08:43:35.160Z,14.84
2016-04-30T08:44:35.163Z,14.94
2016-04-30T08:45:35.010Z,14.65
2016-04-30T08:46:35.169Z,14.75
2016-04-30T08:47:35.187Z,14.75
2016-04-30T08:48:35.034Z,14.84
2016-04-30T08:49:35.052Z,14.74
2016-04-30T08:50:35.196Z,14.75
2016-04-30T08:51:35.214Z,14.45
2016-04-30T08:52:35.217Z,14.84
2016-04-30T08:53:35.079Z,14.74
2016-04-30T08:54:35.081Z,14.74
2016-04-30T08:55:35.239Z,14.74
2016-04-30T08:56:35.242Z,14.65
2016-04-30T08:57:35.105Z,14.74
2016-04-30T08:58:35.264Z,14.55
2016-04-30T08:59:35.266Z,14.55
2016-04-30T09:00:35.128Z,14.75
2016-04-30T09:01:35.288Z,14.84
2016-04-30T09:02:35.291Z,14.65
2016-04-30T09:03:35.308Z,14.75
2016-04-30T09:04:35.936Z,15.03
2016-04-30T09:05:35.314Z,14.94
2016-04-30T09:06:35.317Z,14.74
2016-04-30T09:07:35.319Z,14.94
2016-04-30T09:08:35.338Z,14.84
2016-04-30T09:09:35.325Z,14.94
2016-04-30T09:10:35.187Z,14.94
2016-04-30T09:11:35.345Z,15.03
2016-04-30T09:12:35.192Z,14.94
2016-04-30T09:13:35.366Z,15.32
2016-04-30T09:14:35.369Z,14.84
2016-04-30T09:15:35.215Z,14.84
2016-04-30T09:16:35.374Z,14.94
2016-04-30T09:17:35.440Z,15.32
2016-04-30T09:18:35.240Z,15.12
2016-04-30T09:19:35.757Z,15.52
2016-04-30T09:20:35.417Z,15.32
2016-04-30T09:21:35.420Z,14.74
2016-04-30T09:22:35.282Z,14.84
2016-04-30T09:23:35.440Z,15.03
2016-04-30T09:24:35.443Z,14.65
2016-04-30T09:25:35.306Z,14.84
2016-04-30T09:26:35.449Z,14.75
2016-04-30T09:27:35.466Z,14.75
2016-04-30T09:28:35.313Z,14.94
2016-04-30T09:29:35.472Z,15.22
2016-04-30T09:30:35.334Z,15.22
2016-04-30T09:31:37.289Z,15.12
2016-04-30T09:32:35.355Z,15.03
2016-04-30T09:33:35.514Z,15.32
2016-04-30T09:34:35.673Z,15.03
2016-04-30T09:35:35.550Z,15.12
2016-04-30T09:36:35.539Z,15.12
2016-04-30T09:37:35.541Z,15.12
2016-04-30T09:38:35.543Z,15.32
2016-04-30T09:39:35.546Z,15.42
2016-04-30T09:40:35.549Z,15.71
2016-04-30T09:41:35.552Z,15.52
2016-04-30T09:42:35.569Z,15.61
2016-04-30T09:43:35.572Z,15.81
2016-04-30T09:44:35.574Z,15.42
2016-04-30T09:45:35.594Z,15.52
2016-04-30T09:46:35.596Z,15.42
2016-04-30T09:47:35.442Z,15.61
2016-04-30T09:48:35.618Z,15.71
2016-04-30T09:49:36.979Z,15.52
2016-04-30T09:50:35.622Z,15.52
2016-04-30T09:51:35.626Z,15.52
2016-04-30T09:52:35.487Z,15.61
2016-04-30T09:53:35.646Z,15.42
2016-04-30T09:54:35.649Z,15.61
2016-04-30T09:55:35.667Z,15.71
2016-04-30T09:56:35.670Z,15.61
2016-04-30T09:57:35.672Z,15.42
2016-04-30T09:58:35.675Z,15.32
2016-04-30T09:59:35.694Z,15.61
2016-04-30T10:00:35.681Z,15.52
2016-04-30T10:01:35.699Z,15.71
2016-04-30T10:02:35.702Z,15.61
2016-04-30T10:03:35.720Z,15.32
2016-04-30T10:04:35.723Z,15.32
2016-04-30T10:05:35.725Z,15.32
2016-04-30T10:06:35.744Z,15.52
2016-04-30T10:07:35.730Z,16
2016-04-30T10:08:35.749Z,15.81
2016-04-30T10:09:35.752Z,15.8
2016-04-30T10:10:35.754Z,15.61
2016-04-30T10:11:35.772Z,15.51
2016-04-30T10:12:35.775Z,15.61
2016-04-30T10:13:35.777Z,15.89
2016-04-30T10:14:35.797Z,15.89
2016-04-30T10:15:35.799Z,16.38
2016-04-30T10:16:35.818Z,15.99
2016-04-30T10:17:36.976Z,15.81
2016-04-30T10:18:35.666Z,15.91
2016-04-30T10:19:35.826Z,15.42
2016-04-30T10:20:35.843Z,15.42
2016-04-30T10:21:35.832Z,15.81
2016-04-30T10:22:35.834Z,15.61
2016-04-30T10:23:35.680Z,16
2016-04-30T10:24:35.855Z,15.81
2016-04-30T10:25:35.857Z,15.71
2016-04-30T10:26:35.703Z,16
2016-04-30T10:27:35.879Z,15.61
2016-04-30T10:28:35.881Z,15.81
2016-04-30T10:29:35.884Z,15.81
2016-04-30T10:30:35.887Z,15.62
2016-04-30T10:31:35.905Z,15.81
2016-04-30T10:32:35.908Z,15.91
2016-04-30T10:33:35.911Z,15.52
2016-04-30T10:34:36.194Z,15.81
2016-04-30T10:35:35.931Z,16.01
2016-04-30T10:36:35.777Z,15.81
2016-04-30T10:37:35.937Z,16
2016-04-30T10:38:35.939Z,16
2016-04-30T10:39:35.942Z,15.81
2016-04-30T10:40:35.961Z,15.91
2016-04-30T10:41:35.963Z,15.62
2016-04-30T10:42:35.810Z,15.62
2016-04-30T10:43:35.984Z,15.81
2016-04-30T10:44:35.971Z,15.52
2016-04-30T10:45:35.989Z,15.23
2016-04-30T10:46:36.008Z,15.62
2016-04-30T10:47:36.010Z,15.42
2016-04-30T10:48:36.013Z,15.81
2016-04-30T10:49:36.204Z,15.34
2016-04-30T10:50:36.034Z,15.53
2016-04-30T10:51:36.037Z,15.72
2016-04-30T10:52:36.039Z,15.81
2016-04-30T10:53:36.043Z,16.01
2016-04-30T10:54:36.061Z,16.58
2016-04-30T10:55:35.907Z,16.68
2016-04-30T10:56:35.910Z,16.68
2016-04-30T10:57:36.068Z,16.57
2016-04-30T10:58:36.071Z,16.68
2016-04-30T10:59:36.074Z,16.78
2016-04-30T11:00:36.092Z,17.16
2016-04-30T11:01:36.095Z,17.16
2016-04-30T11:02:36.113Z,17.25
2016-04-30T11:03:36.117Z,17.25
2016-04-30T11:04:36.290Z,16.39
2016-04-30T11:05:35.964Z,16
2016-04-30T11:06:36.140Z,15.81
2016-04-30T11:07:36.127Z,15.81
2016-04-30T11:08:36.144Z,16.01
2016-04-30T11:09:36.148Z,15.91
2016-04-30T11:10:36.151Z,16.01
2016-04-30T11:11:36.169Z,16.2
2016-04-30T11:12:36.171Z,16.3
2016-04-30T11:13:36.174Z,15.72
2016-04-30T11:14:36.183Z,15.91
2016-04-30T11:15:36.182Z,15.91
2016-04-30T11:16:36.699Z,16.2
2016-04-30T11:17:36.030Z,15.91
2016-04-30T11:18:36.205Z,16.39
2016-04-30T11:19:36.208Z,15.91
2016-04-30T11:20:36.227Z,16.01
2016-04-30T11:21:36.057Z,16.59
2016-04-30T11:22:36.232Z,15.81
2016-04-30T11:23:36.234Z,15.91
2016-04-30T11:24:36.081Z,16.01
2016-04-30T11:25:36.240Z,15.81
2016-04-30T11:26:36.258Z,16.01
2016-04-30T11:27:36.261Z,15.81
2016-04-30T11:28:36.264Z,16.11
2016-04-30T11:29:36.266Z,16.11
2016-04-30T11:30:36.284Z,15.81
2016-04-30T11:31:36.287Z,16.01
2016-04-30T11:32:36.289Z,16.69
2016-04-30T11:33:36.152Z,15.81
2016-04-30T11:34:37.030Z,16.6
2016-04-30T11:35:36.314Z,16.02
2016-04-30T11:36:36.317Z,16.31
2016-04-30T11:37:36.319Z,16.31
2016-04-30T11:38:36.336Z,16.69
2016-04-30T11:39:36.339Z,16.31
2016-04-30T11:40:36.342Z,16.69
2016-04-30T11:41:36.360Z,16.31
2016-04-30T11:42:36.364Z,16.89
2016-04-30T11:43:36.366Z,16.88
2016-04-30T11:44:36.369Z,16.59
2016-04-30T11:45:36.388Z,16.88
2016-04-30T11:46:36.391Z,16.88
2016-04-30T11:47:36.393Z,16.69
2016-04-30T11:48:36.410Z,16.69
2016-04-30T11:49:36.616Z,16.59
2016-04-30T11:50:36.416Z,16.88
2016-04-30T11:51:36.419Z,16.78
2016-04-30T11:52:36.421Z,16.98
2016-04-30T11:53:36.424Z,16.59
2016-04-30T11:54:36.442Z,16.78
2016-04-30T11:55:36.445Z,16.69
2016-04-30T11:56:36.448Z,16.89
2016-04-30T11:57:36.467Z,16.59
2016-04-30T11:58:36.469Z,16.89
2016-04-30T11:59:36.472Z,16.88
2016-04-30T12:00:36.475Z,16.79
2016-04-30T12:01:36.493Z,16.78
2016-04-30T12:02:36.496Z,16.69
2016-04-30T12:03:36.497Z,16.41
2016-04-30T12:04:36.875Z,16.6
2016-04-30T12:05:36.520Z,16.78
2016-04-30T12:06:36.522Z,16.59
2016-04-30T12:07:36.525Z,16.69
2016-04-30T12:08:36.528Z,16.69
2016-04-30T12:09:36.545Z,16.6
2016-04-30T12:10:36.547Z,16.6
2016-04-30T12:11:36.550Z,16.6
2016-04-30T12:12:36.553Z,16.98
2016-04-30T12:13:36.572Z,17.36
2016-04-30T12:14:36.574Z,16.98
2016-04-30T12:15:36.593Z,16.49
2016-04-30T12:16:36.596Z,16.69
2016-04-30T12:17:36.598Z,16.79
2016-04-30T12:18:36.601Z,16.69
2016-04-30T12:19:36.635Z,16.6
2016-04-30T12:20:36.622Z,16.78
2016-04-30T12:21:36.624Z,17.18
2016-04-30T12:22:36.643Z,16.78
2016-04-30T12:23:36.645Z,17.36
2016-04-30T12:24:36.648Z,17.56
2016-04-30T12:25:36.651Z,17.85
2016-04-30T12:26:36.654Z,17.08
2016-04-30T12:27:36.673Z,17.18
2016-04-30T12:28:36.518Z,17.56
2016-04-30T12:29:36.678Z,17.56
2016-04-30T12:30:36.681Z,17.66
2016-04-30T12:31:36.698Z,17.66
2016-04-30T12:32:36.700Z,17.95
2016-04-30T12:33:36.703Z,17.56
2016-04-30T12:34:36.722Z,17.94
2016-04-30T12:35:36.569Z,18.15
2016-04-30T12:36:36.742Z,18.04
2016-04-30T12:37:36.730Z,18.04
2016-04-30T12:38:36.759Z,18.13
2016-04-30T12:39:36.881Z,17.84
2016-04-30T12:40:36.846Z,17.84
2016-04-30T12:41:36.905Z,17.94
2016-04-30T12:42:36.948Z,18.05
2016-04-30T12:43:36.984Z,18.15
2016-04-30T12:44:37.002Z,18.13
2016-04-30T12:45:37.036Z,17.94
2016-04-30T12:46:37.037Z,18.15
2016-04-30T12:47:37.071Z,18.71
2016-04-30T12:48:37.085Z,18.62
2016-04-30T12:49:37.108Z,17.94
2016-04-30T12:50:37.116Z,18.33
2016-04-30T12:51:37.124Z,17.94
2016-04-30T12:52:36.976Z,18.24
2016-04-30T12:53:37.155Z,18.15